createdAt,value
2022-08-26T00:00:59.693Z,67.85
2022-08-26T00:06:31.518Z,67.57
2022-08-26T00:12:03.137Z,67.10
2022-08-26T00:17:35.137Z,67.00
2022-08-26T00:23:07.168Z,67.24
2022-08-26T00:28:38.981Z,67.25
2022-08-26T00:34:11.425Z,67.79
2022-08-26T00:39:42.960Z,68.18
2022-08-26T00:45:14.515Z,67.92
2022-08-26T00:50:46.375Z,67.72
2022-08-26T00:56:18.230Z,67.44
2022-08-26T01:01:49.922Z,67.32
2022-08-26T01:07:22.207Z,67.19
2022-08-26T01:12:54.402Z,67.24
2022-08-26T01:18:26.305Z,67.37
2022-08-26T01:29:27.538Z,69.49
2022-08-26T01:34:59.125Z,69.11
2022-08-26T01:51:34.535Z,68.36
2022-08-26T01:57:06.265Z,68.33
2022-08-26T02:02:38.196Z,68.29
2022-08-26T02:08:09.843Z,68.23
2022-08-26T02:19:17.102Z,68.55
2022-08-26T02:24:44.603Z,70.27
2022-08-26T02:30:17.208Z,69.69
2022-08-26T02:35:49.167Z,69.44
2022-08-26T02:46:50.969Z,69.29
2022-08-26T02:52:22.762Z,69.47
2022-08-26T02:57:54.257Z,69.29
2022-08-26T03:03:26.289Z,69.43
2022-08-26T03:08:58.238Z,69.29
2022-08-26T03:25:33.428Z,69.02
2022-08-26T03:31:05.355Z,69.01
2022-08-26T03:36:36.940Z,68.97
2022-08-26T03:47:40.850Z,68.87
2022-08-26T03:53:15.026Z,68.93
2022-08-26T03:58:46.830Z,68.89
2022-08-26T04:09:50.037Z,68.89
2022-08-26T04:15:23.544Z,68.99
2022-08-26T04:20:55.364Z,69.46
2022-08-26T04:26:27.003Z,69.66
2022-08-26T04:31:59.416Z,69.49
2022-08-26T04:37:31.126Z,69.54
2022-08-26T04:43:02.987Z,69.61
2022-08-26T04:48:34.968Z,69.99
2022-08-26T04:54:06.877Z,71.32
2022-08-26T04:59:39.542Z,71.24
2022-08-26T05:05:10.939Z,70.68
2022-08-26T05:10:42.763Z,70.57
2022-08-26T05:16:14.432Z,70.26
2022-08-26T05:21:46.139Z,70.20
2022-08-26T05:27:18.095Z,69.95
2022-08-26T05:32:54.799Z,69.87
2022-08-26T05:38:22.239Z,69.62
2022-08-26T05:43:54.166Z,69.49
2022-08-26T05:54:58.042Z,68.90
2022-08-26T06:00:29.936Z,68.04
2022-08-26T06:06:01.739Z,67.48
2022-08-26T06:11:35.365Z,65.13
2022-08-26T06:17:07.347Z,64.72
2022-08-26T06:28:11.387Z,61.72
2022-08-26T06:33:43.835Z,59.96
2022-08-26T06:50:16.842Z,60.84
2022-08-26T06:55:49.050Z,60.91
2022-08-26T07:01:21.038Z,61.04
2022-08-26T07:12:27.955Z,61.18
2022-08-26T07:18:02.577Z,60.88
2022-08-26T07:23:34.898Z,60.56
2022-08-26T07:29:07.088Z,58.95
2022-08-26T07:34:38.952Z,58.32
2022-08-26T07:40:10.904Z,57.43
2022-08-26T07:45:43.108Z,57.29
2022-08-26T07:51:14.854Z,56.78
2022-08-26T07:56:46.640Z,56.85
2022-08-26T08:02:20.366Z,56.32
2022-08-26T08:07:53.561Z,56.20
2022-08-26T08:13:24.120Z,56.28
2022-08-26T08:18:55.399Z,56.23
2022-08-26T08:24:27.111Z,55.98
2022-08-26T08:29:58.837Z,55.84
2022-08-26T08:35:30.750Z,55.82
2022-08-26T08:46:34.230Z,55.59
2022-08-26T08:52:06.220Z,55.52
2022-08-26T08:57:37.756Z,55.39
2022-08-26T09:03:09.795Z,55.29
2022-08-26T09:08:41.551Z,54.93
2022-08-26T09:14:13.412Z,54.62
2022-08-26T09:19:45.330Z,53.68
2022-08-26T09:25:16.879Z,53.39
2022-08-26T09:30:48.715Z,51.89
2022-08-26T09:36:20.611Z,51.78
2022-08-26T09:41:52.762Z,51.60
2022-08-26T09:47:24.741Z,51.56
2022-08-26T09:52:56.536Z,50.27
2022-08-26T09:58:28.292Z,50.38
2022-08-26T10:04:00.397Z,49.99
2022-08-26T10:09:32.390Z,49.21
2022-08-26T10:15:05.862Z,46.63
2022-08-26T10:20:38.068Z,46.34
2022-08-26T10:26:09.663Z,47.05
2022-08-26T10:31:41.451Z,46.72
2022-08-26T10:42:45.314Z,46.68
2022-08-26T10:48:17.355Z,46.27
2022-08-26T10:53:51.383Z,45.62
2022-08-26T11:04:53.045Z,43.47
2022-08-26T11:10:25.019Z,43.87
2022-08-26T11:15:56.780Z,44.01
2022-08-26T11:18:08.810Z,43.87
2022-08-26T11:23:41.646Z,42.93
2022-08-26T11:29:13.639Z,41.86
2022-08-26T11:34:44.403Z,41.69
2022-08-26T11:40:16.193Z,40.12
2022-08-26T11:45:48.164Z,39.76
2022-08-26T11:51:20.415Z,38.66
2022-08-26T11:56:52.270Z,39.67
2022-08-26T12:02:24.234Z,39.70
2022-08-26T12:07:56.048Z,37.48
2022-08-26T12:13:27.964Z,37.22
2022-08-26T12:18:59.566Z,36.92
2022-08-26T12:24:31.209Z,35.93
2022-08-26T12:30:02.968Z,37.66
2022-08-26T12:35:34.304Z,39.17
2022-08-26T12:41:05.701Z,39.43
2022-08-26T12:46:37.472Z,40.41
2022-08-26T12:52:09.319Z,40.51
2022-08-26T12:57:41.147Z,40.88
2022-08-26T13:03:12.969Z,40.20
2022-08-26T13:08:45.352Z,36.95
2022-08-26T13:14:21.254Z,37.56
2022-08-26T13:19:48.798Z,37.34
2022-08-26T13:25:20.672Z,37.68
2022-08-26T13:30:52.492Z,36.87
2022-08-26T13:36:24.300Z,36.85
2022-08-26T13:41:56.295Z,37.50
2022-08-26T13:47:27.977Z,37.81
2022-08-26T13:52:59.543Z,36.88
2022-08-26T13:58:31.358Z,36.67
2022-08-26T14:04:02.699Z,37.22
2022-08-26T14:09:38.403Z,37.55
2022-08-26T14:15:07.226Z,38.20
2022-08-26T14:26:10.375Z,39.15
2022-08-26T14:31:42.013Z,39.36
2022-08-26T14:42:47.885Z,40.38
2022-08-26T14:53:47.761Z,45.07
2022-08-26T14:59:18.946Z,45.19
2022-08-26T15:04:50.316Z,45.41
2022-08-26T15:10:21.787Z,45.79
2022-08-26T15:15:53.620Z,46.21
2022-08-26T15:21:25.339Z,46.09
2022-08-26T15:26:56.742Z,46.77
2022-08-26T15:32:28.650Z,46.46
2022-08-26T15:38:00.427Z,46.07
2022-08-26T15:49:03.524Z,46.88
2022-08-26T15:54:35.761Z,46.24
2022-08-26T16:00:07.415Z,46.35
2022-08-26T16:05:39.246Z,45.83
2022-08-26T16:11:10.832Z,45.76
2022-08-26T16:16:44.121Z,45.80
2022-08-26T16:22:16.107Z,45.94
2022-08-26T16:27:47.494Z,46.46
2022-08-26T16:33:29.114Z,46.85
2022-08-26T16:38:50.723Z,46.83
2022-08-26T16:49:53.860Z,46.46
2022-08-26T16:55:25.359Z,46.61
2022-08-26T17:00:57.120Z,46.39
2022-08-26T17:06:28.998Z,46.70
2022-08-26T17:12:00.912Z,47.01
2022-08-26T17:17:32.498Z,47.44
2022-08-26T17:23:04.248Z,47.71
2022-08-26T17:28:35.392Z,48.13
2022-08-26T17:34:06.822Z,48.56
2022-08-26T17:39:38.219Z,48.70
2022-08-26T17:45:09.861Z,49.33
2022-08-26T17:50:41.548Z,49.50
2022-08-26T17:56:13.282Z,50.31
2022-08-26T18:01:45.115Z,50.90
2022-08-26T18:07:16.945Z,52.29
2022-08-26T18:12:48.828Z,52.60
2022-08-26T18:19:52.435Z,0.00
2022-08-26T18:25:24.291Z,54.38
2022-08-26T18:30:57.414Z,54.97
2022-08-26T18:36:29.480Z,56.53
2022-08-26T19:18:31.864Z,72.75
2022-08-26T19:29:39.088Z,72.93
2022-08-26T19:35:11.976Z,73.00
2022-08-26T19:40:44.281Z,71.35
2022-08-26T19:46:16.342Z,71.53
2022-08-26T19:51:48.167Z,71.17
2022-08-26T19:57:20.010Z,70.92
2022-08-26T20:02:51.618Z,70.67
2022-08-26T20:08:23.667Z,70.23
2022-08-26T20:13:55.430Z,71.91
2022-08-26T20:19:27.296Z,72.02
2022-08-26T20:24:58.771Z,72.95
2022-08-26T20:30:30.638Z,72.42
2022-08-26T20:36:02.611Z,71.86
2022-08-26T20:41:33.960Z,72.74
2022-08-26T20:47:05.506Z,73.26
2022-08-26T20:52:37.291Z,74.83
2022-08-26T20:58:09.146Z,75.10
2022-08-26T21:03:40.878Z,74.64
2022-08-26T21:09:12.598Z,73.63
2022-08-26T21:14:48.953Z,73.57
2022-08-26T21:20:16.658Z,73.91
2022-08-26T21:25:48.792Z,73.88
2022-08-26T21:31:20.648Z,73.84
2022-08-26T21:36:52.229Z,74.15
2022-08-26T21:42:24.067Z,73.73
2022-08-26T21:47:55.768Z,73.72
2022-08-26T21:53:27.750Z,74.13
2022-08-26T21:58:59.496Z,74.22
2022-08-26T22:04:31.334Z,74.31
2022-08-26T22:10:03.291Z,74.19
2022-08-26T22:15:35.324Z,73.89
2022-08-26T22:21:07.441Z,73.79
2022-08-26T22:26:39.404Z,73.49
2022-08-26T22:32:11.329Z,73.48
2022-08-26T22:37:43.185Z,73.71
2022-08-26T22:43:15.009Z,73.69
2022-08-26T22:48:46.859Z,74.31
2022-08-26T22:54:18.818Z,73.95
2022-08-26T22:59:50.619Z,73.60
2022-08-26T23:10:53.787Z,74.66
2022-08-26T23:16:25.749Z,75.47
2022-08-26T23:21:57.888Z,75.02
2022-08-26T23:26:33.347Z,75.87
2022-08-26T23:32:04.082Z,76.21
2022-08-26T23:37:34.959Z,76.82
2022-08-26T23:43:06.948Z,76.57
2022-08-26T23:48:38.712Z,76.21
2022-08-26T23:54:10.526Z,75.92
2022-08-26T23:59:42.118Z,76.31
